sensor_id;sensor_type;location;lat;lon;timestamp;P1;durP1;ratioP1;P2;durP2;ratioP2
6566;SDS011;3317;43.994;22.878;2022-08-19T00:01:55;5.87;;;5.17;;
6566;SDS011;3317;43.994;22.878;2022-08-19T00:04:26;7.47;;;5.50;;
6566;SDS011;3317;43.994;22.878;2022-08-19T00:06:55;6.97;;;5.10;;
6566;SDS011;3317;43.994;22.878;2022-08-19T00:09:23;10.80;;;5.17;;
6566;SDS011;3317;43.994;22.878;2022-08-19T00:11:52;5.43;;;4.50;;
6566;SDS011;3317;43.994;22.878;2022-08-19T00:14:23;6.20;;;5.20;;
6566;SDS011;3317;43.994;22.878;2022-08-19T00:16:51;5.60;;;4.60;;
6566;SDS011;3317;43.994;22.878;2022-08-19T00:19:21;8.40;;;5.40;;
6566;SDS011;3317;43.994;22.878;2022-08-19T00:21:50;6.10;;;5.33;;
6566;SDS011;3317;43.994;22.878;2022-08-19T00:24:17;7.83;;;5.13;;
6566;SDS011;3317;43.994;22.878;2022-08-19T00:26:44;7.80;;;5.30;;
6566;SDS011;3317;43.994;22.878;2022-08-19T00:29:13;6.37;;;5.63;;
6566;SDS011;3317;43.994;22.878;2022-08-19T00:31:43;7.13;;;5.57;;
6566;SDS011;3317;43.994;22.878;2022-08-19T00:34:10;8.13;;;5.33;;
6566;SDS011;3317;43.994;22.878;2022-08-19T00:36:38;6.17;;;5.00;;
6566;SDS011;3317;43.994;22.878;2022-08-19T00:39:06;6.23;;;5.60;;
6566;SDS011;3317;43.994;22.878;2022-08-19T00:41:34;6.93;;;5.60;;
6566;SDS011;3317;43.994;22.878;2022-08-19T00:44:04;9.30;;;5.60;;
6566;SDS011;3317;43.994;22.878;2022-08-19T00:46:34;6.10;;;5.50;;
6566;SDS011;3317;43.994;22.878;2022-08-19T00:49:06;6.97;;;5.93;;
6566;SDS011;3317;43.994;22.878;2022-08-19T00:51:41;8.53;;;5.10;;
6566;SDS011;3317;43.994;22.878;2022-08-19T00:54:11;6.20;;;5.57;;
6566;SDS011;3317;43.994;22.878;2022-08-19T00:56:38;7.73;;;5.10;;
6566;SDS011;3317;43.994;22.878;2022-08-19T00:59:06;5.43;;;4.93;;
6566;SDS011;3317;43.994;22.878;2022-08-19T01:01:34;9.43;;;5.00;;
6566;SDS011;3317;43.994;22.878;2022-08-19T01:04:02;5.63;;;4.77;;
6566;SDS011;3317;43.994;22.878;2022-08-19T01:06:31;5.63;;;5.07;;
6566;SDS011;3317;43.994;22.878;2022-08-19T01:08:59;10.67;;;5.60;;
6566;SDS011;3317;43.994;22.878;2022-08-19T01:11:27;6.57;;;5.10;;
6566;SDS011;3317;43.994;22.878;2022-08-19T01:13:55;5.60;;;4.83;;
6566;SDS011;3317;43.994;22.878;2022-08-19T01:16:23;7.57;;;4.80;;
6566;SDS011;3317;43.994;22.878;2022-08-19T01:18:53;5.33;;;4.83;;
6566;SDS011;3317;43.994;22.878;2022-08-19T01:21:24;10.40;;;4.73;;
6566;SDS011;3317;43.994;22.878;2022-08-19T01:23:58;6.10;;;4.40;;
6566;SDS011;3317;43.994;22.878;2022-08-19T01:26:26;6.47;;;4.80;;
6566;SDS011;3317;43.994;22.878;2022-08-19T01:28:55;6.43;;;5.30;;
6566;SDS011;3317;43.994;22.878;2022-08-19T01:31:25;5.30;;;4.63;;
6566;SDS011;3317;43.994;22.878;2022-08-19T01:33:56;7.37;;;5.10;;
6566;SDS011;3317;43.994;22.878;2022-08-19T01:36:26;4.70;;;4.23;;
6566;SDS011;3317;43.994;22.878;2022-08-19T01:38:55;7.20;;;4.30;;
6566;SDS011;3317;43.994;22.878;2022-08-19T01:41:24;6.17;;;4.90;;
6566;SDS011;3317;43.994;22.878;2022-08-19T01:43:52;5.47;;;4.97;;
6566;SDS011;3317;43.994;22.878;2022-08-19T01:46:19;7.90;;;5.73;;
6566;SDS011;3317;43.994;22.878;2022-08-19T01:48:46;8.70;;;5.10;;
6566;SDS011;3317;43.994;22.878;2022-08-19T01:51:14;5.67;;;4.57;;
6566;SDS011;3317;43.994;22.878;2022-08-19T01:53:42;6.20;;;4.43;;
6566;SDS011;3317;43.994;22.878;2022-08-19T01:56:09;6.40;;;4.83;;
6566;SDS011;3317;43.994;22.878;2022-08-19T01:58:38;8.40;;;4.67;;
6566;SDS011;3317;43.994;22.878;2022-08-19T02:01:08;6.87;;;5.00;;
6566;SDS011;3317;43.994;22.878;2022-08-19T02:03:35;6.03;;;4.33;;
6566;SDS011;3317;43.994;22.878;2022-08-19T02:06:03;6.80;;;4.60;;
6566;SDS011;3317;43.994;22.878;2022-08-19T02:08:33;5.97;;;4.97;;
6566;SDS011;3317;43.994;22.878;2022-08-19T02:11:02;11.10;;;5.17;;
6566;SDS011;3317;43.994;22.878;2022-08-19T02:13:30;5.97;;;5.00;;
6566;SDS011;3317;43.994;22.878;2022-08-19T02:16:00;6.63;;;5.27;;
6566;SDS011;3317;43.994;22.878;2022-08-19T02:18:27;5.70;;;5.10;;
6566;SDS011;3317;43.994;22.878;2022-08-19T02:20:54;9.50;;;5.20;;
6566;SDS011;3317;43.994;22.878;2022-08-19T02:23:21;5.43;;;4.93;;
6566;SDS011;3317;43.994;22.878;2022-08-19T02:25:48;5.40;;;4.90;;
6566;SDS011;3317;43.994;22.878;2022-08-19T02:28:15;6.97;;;5.07;;
6566;SDS011;3317;43.994;22.878;2022-08-19T02:30:42;5.97;;;4.77;;
6566;SDS011;3317;43.994;22.878;2022-08-19T02:33:10;6.77;;;5.03;;
6566;SDS011;3317;43.994;22.878;2022-08-19T02:35:40;6.93;;;4.73;;
6566;SDS011;3317;43.994;22.878;2022-08-19T02:38:08;6.83;;;4.57;;
6566;SDS011;3317;43.994;22.878;2022-08-19T02:40:54;6.93;;;5.60;;
6566;SDS011;3317;43.994;22.878;2022-08-19T02:43:23;9.80;;;5.70;;
6566;SDS011;3317;43.994;22.878;2022-08-19T02:45:51;7.40;;;5.33;;
6566;SDS011;3317;43.994;22.878;2022-08-19T02:48:22;6.57;;;5.87;;
6566;SDS011;3317;43.994;22.878;2022-08-19T02:50:51;6.63;;;5.30;;
6566;SDS011;3317;43.994;22.878;2022-08-19T02:53:20;5.80;;;5.20;;
6566;SDS011;3317;43.994;22.878;2022-08-19T02:55:49;6.60;;;5.30;;
6566;SDS011;3317;43.994;22.878;2022-08-19T02:58:16;7.83;;;5.87;;
6566;SDS011;3317;43.994;22.878;2022-08-19T03:00:45;8.33;;;6.60;;
6566;SDS011;3317;43.994;22.878;2022-08-19T03:03:14;10.17;;;6.30;;
6566;SDS011;3317;43.994;22.878;2022-08-19T03:05:43;7.00;;;6.30;;
6566;SDS011;3317;43.994;22.878;2022-08-19T03:08:10;7.60;;;6.90;;
6566;SDS011;3317;43.994;22.878;2022-08-19T03:10:42;7.37;;;5.80;;
6566;SDS011;3317;43.994;22.878;2022-08-19T03:13:12;6.47;;;5.87;;
6566;SDS011;3317;43.994;22.878;2022-08-19T03:15:40;8.20;;;6.00;;
6566;SDS011;3317;43.994;22.878;2022-08-19T03:18:09;11.00;;;6.70;;
6566;SDS011;3317;43.994;22.878;2022-08-19T03:20:39;22.00;;;9.70;;
6566;SDS011;3317;43.994;22.878;2022-08-19T03:23:09;14.63;;;6.60;;
6566;SDS011;3317;43.994;22.878;2022-08-19T03:25:38;16.73;;;7.27;;
6566;SDS011;3317;43.994;22.878;2022-08-19T03:28:08;12.00;;;7.60;;
6566;SDS011;3317;43.994;22.878;2022-08-19T03:30:37;12.47;;;6.27;;
6566;SDS011;3317;43.994;22.878;2022-08-19T03:33:04;7.13;;;6.13;;
6566;SDS011;3317;43.994;22.878;2022-08-19T03:35:31;11.40;;;6.20;;
6566;SDS011;3317;43.994;22.878;2022-08-19T03:38:01;9.93;;;6.47;;
6566;SDS011;3317;43.994;22.878;2022-08-19T03:40:30;13.60;;;6.67;;
6566;SDS011;3317;43.994;22.878;2022-08-19T03:42:57;7.07;;;5.93;;
6566;SDS011;3317;43.994;22.878;2022-08-19T03:45:24;7.30;;;6.13;;
6566;SDS011;3317;43.994;22.878;2022-08-19T03:47:52;8.17;;;6.03;;
6566;SDS011;3317;43.994;22.878;2022-08-19T03:50:19;12.33;;;6.20;;
6566;SDS011;3317;43.994;22.878;2022-08-19T03:52:48;6.80;;;5.83;;
6566;SDS011;3317;43.994;22.878;2022-08-19T03:55:16;8.97;;;5.93;;
6566;SDS011;3317;43.994;22.878;2022-08-19T03:57:44;9.63;;;6.33;;
6566;SDS011;3317;43.994;22.878;2022-08-19T04:00:14;10.40;;;6.10;;
6566;SDS011;3317;43.994;22.878;2022-08-19T04:02:41;14.43;;;6.60;;
6566;SDS011;3317;43.994;22.878;2022-08-19T04:05:09;9.83;;;6.30;;
6566;SDS011;3317;43.994;22.878;2022-08-19T04:07:36;13.30;;;7.10;;
6566;SDS011;3317;43.994;22.878;2022-08-19T04:10:03;17.73;;;9.50;;
6566;SDS011;3317;43.994;22.878;2022-08-19T04:12:31;19.40;;;11.40;;
6566;SDS011;3317;43.994;22.878;2022-08-19T04:15:00;29.90;;;14.40;;
6566;SDS011;3317;43.994;22.878;2022-08-19T04:17:27;18.20;;;9.57;;
6566;SDS011;3317;43.994;22.878;2022-08-19T04:19:54;14.03;;;9.70;;
6566;SDS011;3317;43.994;22.878;2022-08-19T04:22:21;12.83;;;7.87;;
6566;SDS011;3317;43.994;22.878;2022-08-19T04:24:48;12.87;;;8.47;;
6566;SDS011;3317;43.994;22.878;2022-08-19T04:27:15;10.03;;;7.70;;
6566;SDS011;3317;43.994;22.878;2022-08-19T04:29:42;11.60;;;7.90;;
6566;SDS011;3317;43.994;22.878;2022-08-19T04:32:10;23.17;;;9.00;;
6566;SDS011;3317;43.994;22.878;2022-08-19T04:34:40;14.30;;;7.33;;
6566;SDS011;3317;43.994;22.878;2022-08-19T04:37:07;9.70;;;7.23;;
6566;SDS011;3317;43.994;22.878;2022-08-19T04:39:37;15.20;;;7.57;;
6566;SDS011;3317;43.994;22.878;2022-08-19T04:42:18;10.40;;;7.17;;
6566;SDS011;3317;43.994;22.878;2022-08-19T04:45:03;21.80;;;7.60;;
6566;SDS011;3317;43.994;22.878;2022-08-19T04:47:37;14.63;;;8.00;;
6566;SDS011;3317;43.994;22.878;2022-08-19T04:50:05;10.77;;;7.13;;
6566;SDS011;3317;43.994;22.878;2022-08-19T04:52:36;10.47;;;7.87;;
6566;SDS011;3317;43.994;22.878;2022-08-19T04:55:07;10.90;;;8.00;;
6566;SDS011;3317;43.994;22.878;2022-08-19T04:57:35;16.63;;;7.93;;
6566;SDS011;3317;43.994;22.878;2022-08-19T05:00:06;11.97;;;8.37;;
6566;SDS011;3317;43.994;22.878;2022-08-19T05:02:38;11.40;;;8.10;;
6566;SDS011;3317;43.994;22.878;2022-08-19T05:05:05;11.30;;;7.37;;
6566;SDS011;3317;43.994;22.878;2022-08-19T05:07:33;10.97;;;7.63;;
6566;SDS011;3317;43.994;22.878;2022-08-19T05:10:01;12.97;;;7.80;;
6566;SDS011;3317;43.994;22.878;2022-08-19T05:12:31;16.20;;;10.60;;
6566;SDS011;3317;43.994;22.878;2022-08-19T05:14:58;15.60;;;11.40;;
6566;SDS011;3317;43.994;22.878;2022-08-19T05:17:26;15.80;;;9.73;;
6566;SDS011;3317;43.994;22.878;2022-08-19T05:19:55;12.70;;;9.20;;
6566;SDS011;3317;43.994;22.878;2022-08-19T05:22:40;14.00;;;8.73;;
6566;SDS011;3317;43.994;22.878;2022-08-19T05:25:09;10.73;;;7.30;;
6566;SDS011;3317;43.994;22.878;2022-08-19T05:27:40;13.47;;;7.87;;
6566;SDS011;3317;43.994;22.878;2022-08-19T05:30:11;10.87;;;7.70;;
6566;SDS011;3317;43.994;22.878;2022-08-19T05:32:40;13.50;;;8.50;;
6566;SDS011;3317;43.994;22.878;2022-08-19T05:35:10;14.40;;;8.50;;
6566;SDS011;3317;43.994;22.878;2022-08-19T05:37:37;11.10;;;8.03;;
6566;SDS011;3317;43.994;22.878;2022-08-19T05:40:05;10.80;;;8.57;;
6566;SDS011;3317;43.994;22.878;2022-08-19T05:42:33;10.80;;;8.60;;
6566;SDS011;3317;43.994;22.878;2022-08-19T05:45:03;23.50;;;7.90;;
6566;SDS011;3317;43.994;22.878;2022-08-19T05:47:31;12.07;;;8.40;;
6566;SDS011;3317;43.994;22.878;2022-08-19T05:49:58;13.70;;;8.20;;
6566;SDS011;3317;43.994;22.878;2022-08-19T05:52:28;10.00;;;7.77;;
6566;SDS011;3317;43.994;22.878;2022-08-19T05:54:55;13.50;;;9.00;;
6566;SDS011;3317;43.994;22.878;2022-08-19T05:57:22;13.13;;;9.03;;
6566;SDS011;3317;43.994;22.878;2022-08-19T05:59:50;15.50;;;9.67;;
6566;SDS011;3317;43.994;22.878;2022-08-19T06:02:18;11.30;;;9.40;;
6566;SDS011;3317;43.994;22.878;2022-08-19T06:04:45;13.47;;;10.00;;
6566;SDS011;3317;43.994;22.878;2022-08-19T06:07:13;10.00;;;8.83;;
6566;SDS011;3317;43.994;22.878;2022-08-19T06:09:41;11.53;;;9.40;;
6566;SDS011;3317;43.994;22.878;2022-08-19T06:12:09;14.17;;;9.70;;
6566;SDS011;3317;43.994;22.878;2022-08-19T06:14:36;12.07;;;9.43;;
6566;SDS011;3317;43.994;22.878;2022-08-19T06:17:03;23.70;;;11.10;;
6566;SDS011;3317;43.994;22.878;2022-08-19T06:19:30;12.53;;;9.87;;
6566;SDS011;3317;43.994;22.878;2022-08-19T06:21:58;11.17;;;8.60;;
6566;SDS011;3317;43.994;22.878;2022-08-19T06:24:27;13.63;;;10.87;;
6566;SDS011;3317;43.994;22.878;2022-08-19T06:26:58;14.53;;;9.97;;
6566;SDS011;3317;43.994;22.878;2022-08-19T06:29:27;17.13;;;9.63;;
6566;SDS011;3317;43.994;22.878;2022-08-19T06:31:56;13.27;;;10.13;;
6566;SDS011;3317;43.994;22.878;2022-08-19T06:34:25;16.40;;;11.10;;
6566;SDS011;3317;43.994;22.878;2022-08-19T06:36:55;14.40;;;10.20;;
6566;SDS011;3317;43.994;22.878;2022-08-19T06:39:25;14.80;;;11.00;;
6566;SDS011;3317;43.994;22.878;2022-08-19T06:41:54;12.50;;;10.87;;
6566;SDS011;3317;43.994;22.878;2022-08-19T06:44:26;14.60;;;10.77;;
6566;SDS011;3317;43.994;22.878;2022-08-19T06:47:01;12.07;;;10.67;;
6566;SDS011;3317;43.994;22.878;2022-08-19T06:49:32;14.10;;;10.33;;
6566;SDS011;3317;43.994;22.878;2022-08-19T06:51:59;11.80;;;10.33;;
6566;SDS011;3317;43.994;22.878;2022-08-19T06:54:28;12.23;;;9.57;;
6566;SDS011;3317;43.994;22.878;2022-08-19T06:56:55;11.63;;;10.40;;
6566;SDS011;3317;43.994;22.878;2022-08-19T06:59:24;24.53;;;11.67;;
6566;SDS011;3317;43.994;22.878;2022-08-19T07:01:55;12.87;;;10.87;;
6566;SDS011;3317;43.994;22.878;2022-08-19T07:04:24;12.97;;;10.40;;
6566;SDS011;3317;43.994;22.878;2022-08-19T07:06:59;11.13;;;9.60;;
6566;SDS011;3317;43.994;22.878;2022-08-19T07:09:28;11.93;;;9.83;;
6566;SDS011;3317;43.994;22.878;2022-08-19T07:11:55;12.37;;;9.97;;
6566;SDS011;3317;43.994;22.878;2022-08-19T07:14:23;10.70;;;9.60;;
6566;SDS011;3317;43.994;22.878;2022-08-19T07:16:54;11.00;;;9.77;;
6566;SDS011;3317;43.994;22.878;2022-08-19T07:19:23;14.17;;;10.13;;
6566;SDS011;3317;43.994;22.878;2022-08-19T07:21:52;14.73;;;10.43;;
6566;SDS011;3317;43.994;22.878;2022-08-19T07:24:21;16.00;;;11.10;;
6566;SDS011;3317;43.994;22.878;2022-08-19T07:26:51;13.57;;;9.40;;
6566;SDS011;3317;43.994;22.878;2022-08-19T07:29:19;14.03;;;10.83;;
6566;SDS011;3317;43.994;22.878;2022-08-19T07:31:49;12.93;;;10.17;;
6566;SDS011;3317;43.994;22.878;2022-08-19T07:34:17;16.60;;;10.40;;
6566;SDS011;3317;43.994;22.878;2022-08-19T07:36:45;10.00;;;9.00;;
6566;SDS011;3317;43.994;22.878;2022-08-19T07:39:13;12.97;;;11.03;;
6566;SDS011;3317;43.994;22.878;2022-08-19T07:41:43;10.10;;;9.10;;
6566;SDS011;3317;43.994;22.878;2022-08-19T07:44:11;15.93;;;10.00;;
6566;SDS011;3317;43.994;22.878;2022-08-19T07:46:41;10.10;;;9.13;;
6566;SDS011;3317;43.994;22.878;2022-08-19T07:49:12;14.63;;;9.97;;
6566;SDS011;3317;43.994;22.878;2022-08-19T07:51:42;12.10;;;9.80;;
6566;SDS011;3317;43.994;22.878;2022-08-19T07:54:09;11.10;;;9.40;;
6566;SDS011;3317;43.994;22.878;2022-08-19T07:56:38;15.97;;;10.10;;
6566;SDS011;3317;43.994;22.878;2022-08-19T07:59:05;12.20;;;9.17;;
6566;SDS011;3317;43.994;22.878;2022-08-19T08:01:35;11.27;;;10.07;;
6566;SDS011;3317;43.994;22.878;2022-08-19T08:04:05;13.70;;;9.50;;
6566;SDS011;3317;43.994;22.878;2022-08-19T08:06:51;11.60;;;9.30;;
6566;SDS011;3317;43.994;22.878;2022-08-19T08:09:37;11.70;;;10.00;;
6566;SDS011;3317;43.994;22.878;2022-08-19T08:12:06;10.87;;;9.77;;
6566;SDS011;3317;43.994;22.878;2022-08-19T08:14:38;12.97;;;10.37;;
6566;SDS011;3317;43.994;22.878;2022-08-19T08:17:07;17.07;;;10.57;;
6566;SDS011;3317;43.994;22.878;2022-08-19T08:19:36;17.47;;;10.47;;
6566;SDS011;3317;43.994;22.878;2022-08-19T08:22:07;16.90;;;10.70;;
6566;SDS011;3317;43.994;22.878;2022-08-19T08:24:55;18.53;;;9.90;;
6566;SDS011;3317;43.994;22.878;2022-08-19T08:27:23;13.97;;;9.20;;
6566;SDS011;3317;43.994;22.878;2022-08-19T08:29:51;20.53;;;10.43;;
6566;SDS011;3317;43.994;22.878;2022-08-19T08:32:17;10.37;;;9.10;;
6566;SDS011;3317;43.994;22.878;2022-08-19T08:34:44;15.00;;;9.60;;
6566;SDS011;3317;43.994;22.878;2022-08-19T08:37:13;15.73;;;9.90;;
6566;SDS011;3317;43.994;22.878;2022-08-19T08:39:40;14.53;;;10.90;;
6566;SDS011;3317;43.994;22.878;2022-08-19T08:42:08;12.63;;;10.17;;
6566;SDS011;3317;43.994;22.878;2022-08-19T08:44:42;12.00;;;9.60;;
6566;SDS011;3317;43.994;22.878;2022-08-19T08:47:18;15.47;;;10.00;;
6566;SDS011;3317;43.994;22.878;2022-08-19T08:49:49;10.90;;;9.70;;
6566;SDS011;3317;43.994;22.878;2022-08-19T08:52:22;12.07;;;9.40;;
6566;SDS011;3317;43.994;22.878;2022-08-19T08:54:52;13.13;;;8.30;;
6566;SDS011;3317;43.994;22.878;2022-08-19T08:57:26;12.10;;;9.87;;
6566;SDS011;3317;43.994;22.878;2022-08-19T08:59:58;14.17;;;9.30;;
6566;SDS011;3317;43.994;22.878;2022-08-19T09:02:30;11.20;;;9.13;;
6566;SDS011;3317;43.994;22.878;2022-08-19T09:04:57;16.03;;;9.50;;
6566;SDS011;3317;43.994;22.878;2022-08-19T09:07:29;10.13;;;8.47;;
6566;SDS011;3317;43.994;22.878;2022-08-19T09:10:08;11.63;;;8.20;;
6566;SDS011;3317;43.994;22.878;2022-08-19T09:12:43;9.47;;;8.47;;
6566;SDS011;3317;43.994;22.878;2022-08-19T09:15:29;9.97;;;7.70;;
6566;SDS011;3317;43.994;22.878;2022-08-19T09:18:02;13.50;;;7.70;;
6566;SDS011;3317;43.994;22.878;2022-08-19T09:20:31;8.83;;;7.93;;
6566;SDS011;3317;43.994;22.878;2022-08-19T09:23:00;9.07;;;7.70;;
6566;SDS011;3317;43.994;22.878;2022-08-19T09:25:27;12.50;;;8.50;;
6566;SDS011;3317;43.994;22.878;2022-08-19T09:27:56;9.60;;;8.70;;
6566;SDS011;3317;43.994;22.878;2022-08-19T09:30:28;9.77;;;8.77;;
6566;SDS011;3317;43.994;22.878;2022-08-19T09:32:57;12.37;;;7.90;;
6566;SDS011;3317;43.994;22.878;2022-08-19T09:35:26;9.37;;;8.37;;
6566;SDS011;3317;43.994;22.878;2022-08-19T09:37:55;8.97;;;7.93;;
6566;SDS011;3317;43.994;22.878;2022-08-19T09:40:25;8.73;;;7.87;;
6566;SDS011;3317;43.994;22.878;2022-08-19T09:42:53;14.90;;;9.60;;
6566;SDS011;3317;43.994;22.878;2022-08-19T09:45:22;9.93;;;8.80;;
6566;SDS011;3317;43.994;22.878;2022-08-19T09:47:49;14.10;;;9.97;;
6566;SDS011;3317;43.994;22.878;2022-08-19T09:50:17;11.57;;;9.17;;
6566;SDS011;3317;43.994;22.878;2022-08-19T09:52:45;11.13;;;9.60;;
6566;SDS011;3317;43.994;22.878;2022-08-19T09:55:12;10.73;;;9.10;;
6566;SDS011;3317;43.994;22.878;2022-08-19T09:57:42;11.63;;;9.17;;
6566;SDS011;3317;43.994;22.878;2022-08-19T10:00:09;10.37;;;9.30;;
6566;SDS011;3317;43.994;22.878;2022-08-19T10:02:37;10.77;;;8.87;;
6566;SDS011;3317;43.994;22.878;2022-08-19T10:05:04;10.07;;;9.03;;
6566;SDS011;3317;43.994;22.878;2022-08-19T10:07:49;9.27;;;8.37;;
6566;SDS011;3317;43.994;22.878;2022-08-19T10:10:16;10.20;;;8.47;;
6566;SDS011;3317;43.994;22.878;2022-08-19T10:12:45;12.30;;;7.90;;
6566;SDS011;3317;43.994;22.878;2022-08-19T10:15:13;9.07;;;8.27;;
6566;SDS011;3317;43.994;22.878;2022-08-19T10:17:41;11.00;;;8.50;;
6566;SDS011;3317;43.994;22.878;2022-08-19T10:20:09;9.13;;;8.23;;
6566;SDS011;3317;43.994;22.878;2022-08-19T10:22:36;8.97;;;8.07;;
6566;SDS011;3317;43.994;22.878;2022-08-19T10:25:05;8.80;;;7.90;;
6566;SDS011;3317;43.994;22.878;2022-08-19T10:27:32;11.87;;;8.80;;
6566;SDS011;3317;43.994;22.878;2022-08-19T10:30:03;9.63;;;8.23;;
6566;SDS011;3317;43.994;22.878;2022-08-19T10:32:31;11.10;;;8.10;;
6566;SDS011;3317;43.994;22.878;2022-08-19T10:34:59;12.63;;;8.90;;
6566;SDS011;3317;43.994;22.878;2022-08-19T10:37:26;9.83;;;8.13;;
6566;SDS011;3317;43.994;22.878;2022-08-19T10:39:53;9.60;;;7.53;;
6566;SDS011;3317;43.994;22.878;2022-08-19T10:42:20;8.63;;;7.73;;
6566;SDS011;3317;43.994;22.878;2022-08-19T10:44:47;8.03;;;7.23;;
6566;SDS011;3317;43.994;22.878;2022-08-19T10:47:16;10.10;;;7.93;;
6566;SDS011;3317;43.994;22.878;2022-08-19T10:49:43;8.00;;;7.30;;
6566;SDS011;3317;43.994;22.878;2022-08-19T10:52:28;8.07;;;7.27;;
6566;SDS011;3317;43.994;22.878;2022-08-19T10:55:03;9.10;;;7.63;;
6566;SDS011;3317;43.994;22.878;2022-08-19T10:57:49;8.57;;;7.87;;
6566;SDS011;3317;43.994;22.878;2022-08-19T11:00:18;16.47;;;8.30;;
6566;SDS011;3317;43.994;22.878;2022-08-19T11:02:47;10.13;;;7.53;;
6566;SDS011;3317;43.994;22.878;2022-08-19T11:05:14;10.57;;;6.97;;
6566;SDS011;3317;43.994;22.878;2022-08-19T11:07:42;9.27;;;7.40;;
6566;SDS011;3317;43.994;22.878;2022-08-19T11:10:11;11.37;;;7.93;;
6566;SDS011;3317;43.994;22.878;2022-08-19T11:12:39;8.60;;;7.70;;
6566;SDS011;3317;43.994;22.878;2022-08-19T11:15:08;8.90;;;8.00;;
6566;SDS011;3317;43.994;22.878;2022-08-19T11:17:36;9.40;;;7.47;;
6566;SDS011;3317;43.994;22.878;2022-08-19T11:20:07;9.23;;;6.93;;
6566;SDS011;3317;43.994;22.878;2022-08-19T11:22:37;8.23;;;6.40;;
6566;SDS011;3317;43.994;22.878;2022-08-19T11:25:05;8.07;;;6.57;;
6566;SDS011;3317;43.994;22.878;2022-08-19T11:27:32;8.03;;;7.23;;
6566;SDS011;3317;43.994;22.878;2022-08-19T11:29:59;7.53;;;6.50;;
6566;SDS011;3317;43.994;22.878;2022-08-19T11:32:29;6.60;;;6.00;;
6566;SDS011;3317;43.994;22.878;2022-08-19T11:34:56;8.43;;;6.13;;
6566;SDS011;3317;43.994;22.878;2022-08-19T11:37:24;6.10;;;5.60;;
6566;SDS011;3317;43.994;22.878;2022-08-19T11:39:52;6.70;;;6.07;;
6566;SDS011;3317;43.994;22.878;2022-08-19T11:42:19;9.33;;;6.00;;
6566;SDS011;3317;43.994;22.878;2022-08-19T11:45:03;6.73;;;6.13;;
6566;SDS011;3317;43.994;22.878;2022-08-19T11:47:30;9.60;;;5.97;;
6566;SDS011;3317;43.994;22.878;2022-08-19T11:49:58;7.23;;;5.60;;
6566;SDS011;3317;43.994;22.878;2022-08-19T11:52:26;6.70;;;5.03;;
6566;SDS011;3317;43.994;22.878;2022-08-19T11:54:54;5.57;;;5.07;;
6566;SDS011;3317;43.994;22.878;2022-08-19T11:57:21;4.83;;;4.43;;
6566;SDS011;3317;43.994;22.878;2022-08-19T11:59:49;5.40;;;4.90;;
6566;SDS011;3317;43.994;22.878;2022-08-19T12:02:17;6.37;;;5.20;;
6566;SDS011;3317;43.994;22.878;2022-08-19T12:04:45;5.40;;;4.87;;
6566;SDS011;3317;43.994;22.878;2022-08-19T12:07:12;6.03;;;4.70;;
6566;SDS011;3317;43.994;22.878;2022-08-19T12:09:41;7.00;;;4.30;;
6566;SDS011;3317;43.994;22.878;2022-08-19T12:12:08;4.67;;;4.27;;
6566;SDS011;3317;43.994;22.878;2022-08-19T12:14:35;5.03;;;4.63;;
6566;SDS011;3317;43.994;22.878;2022-08-19T12:17:03;4.13;;;3.70;;
6566;SDS011;3317;43.994;22.878;2022-08-19T12:19:32;5.23;;;4.83;;
6566;SDS011;3317;43.994;22.878;2022-08-19T12:22:00;5.87;;;4.50;;
6566;SDS011;3317;43.994;22.878;2022-08-19T12:24:29;4.50;;;4.10;;
6566;SDS011;3317;43.994;22.878;2022-08-19T12:26:59;5.70;;;4.80;;
6566;SDS011;3317;43.994;22.878;2022-08-19T12:29:26;5.67;;;4.80;;
6566;SDS011;3317;43.994;22.878;2022-08-19T12:31:55;5.07;;;4.60;;
6566;SDS011;3317;43.994;22.878;2022-08-19T12:34:27;5.37;;;4.57;;
6566;SDS011;3317;43.994;22.878;2022-08-19T12:36:56;6.30;;;4.20;;
6566;SDS011;3317;43.994;22.878;2022-08-19T12:39:24;4.93;;;4.00;;
6566;SDS011;3317;43.994;22.878;2022-08-19T12:41:52;5.00;;;4.33;;
6566;SDS011;3317;43.994;22.878;2022-08-19T12:44:21;5.10;;;4.10;;
6566;SDS011;3317;43.994;22.878;2022-08-19T12:46:49;4.70;;;3.87;;
6566;SDS011;3317;43.994;22.878;2022-08-19T12:49:16;5.07;;;3.93;;
6566;SDS011;3317;43.994;22.878;2022-08-19T12:51:43;4.90;;;4.40;;
6566;SDS011;3317;43.994;22.878;2022-08-19T12:54:10;4.40;;;3.83;;
6566;SDS011;3317;43.994;22.878;2022-08-19T12:56:37;5.27;;;4.33;;
6566;SDS011;3317;43.994;22.878;2022-08-19T12:59:04;8.53;;;4.20;;
6566;SDS011;3317;43.994;22.878;2022-08-19T13:01:34;5.97;;;4.37;;
6566;SDS011;3317;43.994;22.878;2022-08-19T13:04:03;4.37;;;4.07;;
6566;SDS011;3317;43.994;22.878;2022-08-19T13:06:30;6.90;;;4.00;;
6566;SDS011;3317;43.994;22.878;2022-08-19T13:08:58;7.17;;;4.70;;
6566;SDS011;3317;43.994;22.878;2022-08-19T13:11:25;5.93;;;4.17;;
6566;SDS011;3317;43.994;22.878;2022-08-19T13:13:57;4.80;;;4.33;;
6566;SDS011;3317;43.994;22.878;2022-08-19T13:16:24;5.67;;;4.13;;
6566;SDS011;3317;43.994;22.878;2022-08-19T13:18:55;5.97;;;4.53;;
6566;SDS011;3317;43.994;22.878;2022-08-19T13:21:23;5.60;;;4.40;;
6566;SDS011;3317;43.994;22.878;2022-08-19T13:23:52;7.77;;;4.47;;
6566;SDS011;3317;43.994;22.878;2022-08-19T13:26:21;4.67;;;4.27;;
6566;SDS011;3317;43.994;22.878;2022-08-19T13:28:49;5.50;;;3.93;;
6566;SDS011;3317;43.994;22.878;2022-08-19T13:31:34;5.87;;;4.30;;
6566;SDS011;3317;43.994;22.878;2022-08-19T13:34:25;8.10;;;4.73;;
6566;SDS011;3317;43.994;22.878;2022-08-19T13:36:57;6.20;;;4.83;;
6566;SDS011;3317;43.994;22.878;2022-08-19T13:39:24;4.17;;;3.83;;
6566;SDS011;3317;43.994;22.878;2022-08-19T13:41:52;5.63;;;4.37;;
6566;SDS011;3317;43.994;22.878;2022-08-19T13:44:19;7.07;;;5.03;;
6566;SDS011;3317;43.994;22.878;2022-08-19T13:46:47;5.90;;;4.03;;
6566;SDS011;3317;43.994;22.878;2022-08-19T13:49:16;6.20;;;3.90;;
6566;SDS011;3317;43.994;22.878;2022-08-19T13:51:44;7.30;;;3.80;;
6566;SDS011;3317;43.994;22.878;2022-08-19T13:54:11;5.00;;;3.80;;
6566;SDS011;3317;43.994;22.878;2022-08-19T13:56:42;5.40;;;3.57;;
6566;SDS011;3317;43.994;22.878;2022-08-19T13:59:11;4.00;;;3.40;;
6566;SDS011;3317;43.994;22.878;2022-08-19T14:01:39;6.03;;;3.50;;
6566;SDS011;3317;43.994;22.878;2022-08-19T14:04:07;6.40;;;3.13;;
6566;SDS011;3317;43.994;22.878;2022-08-19T14:06:35;7.47;;;4.07;;
6566;SDS011;3317;43.994;22.878;2022-08-19T14:09:03;5.47;;;3.90;;
6566;SDS011;3317;43.994;22.878;2022-08-19T14:11:31;6.77;;;3.30;;
6566;SDS011;3317;43.994;22.878;2022-08-19T14:13:58;5.20;;;4.00;;
6566;SDS011;3317;43.994;22.878;2022-08-19T14:16:25;7.83;;;3.77;;
6566;SDS011;3317;43.994;22.878;2022-08-19T14:18:52;4.77;;;3.80;;
6566;SDS011;3317;43.994;22.878;2022-08-19T14:21:20;6.63;;;4.30;;
6566;SDS011;3317;43.994;22.878;2022-08-19T14:23:48;6.17;;;4.70;;
6566;SDS011;3317;43.994;22.878;2022-08-19T14:26:17;8.47;;;6.80;;
6566;SDS011;3317;43.994;22.878;2022-08-19T14:28:45;5.60;;;4.70;;
6566;SDS011;3317;43.994;22.878;2022-08-19T14:31:14;7.93;;;4.33;;
6566;SDS011;3317;43.994;22.878;2022-08-19T14:33:44;5.37;;;4.87;;
6566;SDS011;3317;43.994;22.878;2022-08-19T14:36:11;5.37;;;4.90;;
6566;SDS011;3317;43.994;22.878;2022-08-19T14:38:38;9.60;;;4.57;;
6566;SDS011;3317;43.994;22.878;2022-08-19T14:41:10;7.30;;;4.90;;
6566;SDS011;3317;43.994;22.878;2022-08-19T14:43:42;11.33;;;5.30;;
6566;SDS011;3317;43.994;22.878;2022-08-19T14:46:11;9.87;;;5.10;;
6566;SDS011;3317;43.994;22.878;2022-08-19T14:48:39;5.67;;;5.13;;
6566;SDS011;3317;43.994;22.878;2022-08-19T14:51:07;5.20;;;4.70;;
6566;SDS011;3317;43.994;22.878;2022-08-19T14:53:35;6.63;;;5.33;;
6566;SDS011;3317;43.994;22.878;2022-08-19T14:56:07;7.33;;;4.80;;
6566;SDS011;3317;43.994;22.878;2022-08-19T14:58:36;6.73;;;5.33;;
6566;SDS011;3317;43.994;22.878;2022-08-19T15:01:05;6.30;;;5.07;;
6566;SDS011;3317;43.994;22.878;2022-08-19T15:03:32;7.83;;;4.87;;
6566;SDS011;3317;43.994;22.878;2022-08-19T15:06:00;5.80;;;5.17;;